Time;durP1;ratioP1;P1;durP2;ratioP2;P2;SDS_P1;SDS_P2;PMS_P1;PMS_P2;Temp;Humidity;BMP_temperature;BMP_pressure;BME280_temperature;BME280_humidity;BME280_pressure;Samples;Min_cycle;Max_cycle;Signal;HPM_P1;HPM_P2
2021/12/07 00:01:31;;;;;;;42.10;24.98;;;;;;;1.64;100.00;100361.31;4803986;29;20051;-75
2021/12/07 00:03:57;;;;;;;42.83;25.13;;;;;;;1.60;100.00;100360.00;4818384;29;20166;-75
2021/12/07 00:06:22;;;;;;;45.85;26.98;;;;;;;1.56;100.00;100369.28;4836384;29;25453;-75
2021/12/07 00:08:53;;;;;;;44.00;26.50;;;;;;;1.52;100.00;100360.00;4821070;29;20047;-75
2021/12/07 00:11:19;;;;;;;47.25;27.15;;;;;;;1.43;100.00;100361.00;4838127;29;20081;-76
2021/12/07 00:13:45;;;;;;;51.50;27.70;;;;;;;1.39;100.00;100365.78;4814418;29;20101;-75
2021/12/07 00:16:11;;;;;;;54.88;27.58;;;;;;;1.32;100.00;100356.00;4827759;29;20055;-75
2021/12/07 00:18:37;;;;;;;49.33;28.08;;;;;;;1.26;100.00;100359.31;4820141;29;20039;-75
2021/12/07 00:21:04;;;;;;;49.35;28.13;;;;;;;1.19;100.00;100357.34;4805521;28;20179;-76
2021/12/07 00:23:30;;;;;;;48.10;28.98;;;;;;;1.18;100.00;100363.63;4834769;28;20039;-75
2021/12/07 00:25:55;;;;;;;45.13;26.77;;;;;;;1.18;100.00;100366.28;4835760;28;20043;-75
2021/12/07 00:28:23;;;;;;;47.63;28.20;;;;;;;1.10;100.00;100355.66;4822372;29;20174;-75
2021/12/07 00:30:50;;;;;;;49.03;27.50;;;;;;;1.11;100.00;100362.59;4820948;29;20027;-73
2021/12/07 00:35:47;;;;;;;46.17;27.45;;;;;;;1.17;100.00;100356.66;4811044;29;20056;-73
2021/12/07 00:38:16;;;;;;;48.20;27.20;;;;;;;1.10;100.00;100347.69;4819689;29;20040;-73
2021/12/07 00:40:42;;;;;;;53.53;28.00;;;;;;;1.09;100.00;100354.00;4822901;28;21182;-73
2021/12/07 00:43:07;;;;;;;47.50;28.30;;;;;;;1.08;100.00;100357.63;4835204;29;20039;-75
2021/12/07 00:45:34;;;;;;;53.15;29.20;;;;;;;1.07;100.00;100355.97;4815659;29;20038;-75
2021/12/07 00:48:01;;;;;;;53.85;29.50;;;;;;;1.10;100.00;100358.31;4809833;29;20170;-75
2021/12/07 00:50:27;;;;;;;49.72;27.52;;;;;;;1.08;100.00;100368.25;4835545;29;20043;-73
2021/12/07 00:52:53;;;;;;;53.78;29.65;;;;;;;1.07;100.00;100361.28;4812150;29;20078;-73
2021/12/07 00:55:23;;;;;;;51.55;28.40;;;;;;;1.07;100.00;100363.09;4821332;29;20107;-73
2021/12/07 00:57:52;;;;;;;50.90;27.95;;;;;;;1.06;100.00;100364.94;4816340;29;20113;-73
2021/12/07 01:00:19;;;;;;;49.42;29.75;;;;;;;1.05;100.00;100362.44;4801847;29;21107;-74
2021/12/07 01:02:44;;;;;;;52.33;29.08;;;;;;;1.05;100.00;100373.88;4833795;29;20065;-74
2021/12/07 01:05:17;;;;;;;51.22;28.70;;;;;;;1.01;100.00;100367.22;4830201;28;20098;-73
2021/12/07 01:26:34;;;;;;;49.35;26.45;;;;;;;0.40;100.00;100397.50;4820118;28;19922;-74
2021/12/07 01:28:59;;;;;;;50.08;27.25;;;;;;;0.36;100.00;100393.50;4813009;29;20032;-74
2021/12/07 01:31:32;;;;;;;51.45;26.88;;;;;;;0.26;100.00;100392.78;4815566;28;20082;-75
2021/12/07 01:47:59;;;;;;;54.72;29.17;;;;;;;-0.03;100.00;100409.81;4807537;29;21019;-73
2021/12/07 02:00:49;;;;;;;53.97;25.88;;;;;;;-0.06;100.00;100415.44;4820904;29;20211;-73
2021/12/07 02:03:15;;;;;;;58.65;30.25;;;;;;;-0.02;100.00;100416.78;4816397;29;22713;-73
2021/12/07 02:05:40;;;;;;;56.47;29.73;;;;;;;-0.04;100.00;100408.97;4827021;29;20059;-71
2021/12/07 02:08:06;;;;;;;52.70;28.67;;;;;;;-0.04;100.00;100408.97;4820611;29;20090;-73
2021/12/07 02:10:33;;;;;;;59.40;28.80;;;;;;;-0.04;100.00;100408.16;4821979;29;20436;-74
2021/12/07 02:13:04;;;;;;;50.75;27.52;;;;;;;-0.07;100.00;100413.75;4835796;29;20063;-74
2021/12/07 02:15:31;;;;;;;54.67;28.30;;;;;;;-0.06;100.00;100403.00;4821341;29;20121;-74
2021/12/07 02:17:57;;;;;;;60.60;29.00;;;;;;;0.00;100.00;100414.81;4805424;28;20186;-74
2021/12/07 02:20:25;;;;;;;60.13;29.02;;;;;;;-0.07;100.00;100409.31;4821422;29;20154;-74
2021/12/07 02:22:51;;;;;;;58.97;29.10;;;;;;;-0.03;100.00;100421.25;4815464;29;20102;-74
2021/12/07 02:25:17;;;;;;;55.72;29.55;;;;;;;-0.03;100.00;100415.13;4811272;29;20062;-72
2021/12/07 02:27:45;;;;;;;55.83;27.67;;;;;;;-0.03;100.00;100415.94;4818860;29;20110;-74
2021/12/07 02:30:13;;;;;;;58.03;28.98;;;;;;;-0.04;100.00;100424.03;4820171;29;20063;-72
2021/12/07 02:32:40;;;;;;;53.92;28.65;;;;;;;-0.03;100.00;100418.59;4819331;29;20066;-72
2021/12/07 02:35:07;;;;;;;50.38;27.60;;;;;;;0.02;100.00;100426.06;4832765;29;20054;-72
2021/12/07 02:37:35;;;;;;;55.63;28.90;;;;;;;-0.03;100.00;100423.91;4807446;29;20058;-72
2021/12/07 02:40:01;;;;;;;52.22;27.98;;;;;;;0.04;100.00;100429.41;4836590;29;20121;-72
2021/12/07 02:42:27;;;;;;;50.15;27.05;;;;;;;0.06;100.00;100430.06;4833403;28;20582;-72
2021/12/07 02:44:53;;;;;;;49.55;26.70;;;;;;;0.03;100.00;100429.53;4824843;28;20052;-72
2021/12/07 02:47:20;;;;;;;51.63;27.80;;;;;;;0.01;100.00;100427.06;4834455;29;20039;-73
2021/12/07 02:49:46;;;;;;;52.60;27.08;;;;;;;0.07;100.00;100431.75;4804717;29;20066;-73
2021/12/07 02:52:12;;;;;;;54.22;27.75;;;;;;;0.05;100.00;100433.72;4836759;29;20451;-73
2021/12/07 02:54:43;;;;;;;52.50;29.05;;;;;;;0.07;100.00;100442.34;4813828;29;20038;-73
2021/12/07 02:57:13;;;;;;;58.72;28.17;;;;;;;0.08;100.00;100438.69;4809954;29;20051;-73
2021/12/07 02:59:47;;;;;;;49.28;27.77;;;;;;;0.09;100.00;100432.41;4819086;29;24014;-73
2021/12/07 03:02:15;;;;;;;48.45;26.58;;;;;;;0.09;100.00;100439.53;4820370;28;25893;-73
2021/12/07 03:04:51;;;;;;;47.38;26.17;;;;;;;0.14;100.00;100438.09;4834295;29;20046;-72
2021/12/07 03:07:27;;;;;;;54.25;27.75;;;;;;;0.14;100.00;100451.34;4818094;29;25362;-73
2021/12/07 03:26:34;;;;;;;49.75;28.35;;;;;;;0.33;100.00;100426.44;4836736;28;20046;-74
2021/12/07 03:29:00;;;;;;;51.03;28.58;;;;;;;0.33;100.00;100425.63;4822735;28;22645;-75
2021/12/07 03:31:26;;;;;;;50.10;29.05;;;;;;;0.35;100.00;100428.91;4836477;29;20532;-75
2021/12/07 03:33:56;;;;;;;50.15;29.17;;;;;;;0.39;100.00;100430.28;4813142;29;20530;-75
2021/12/07 03:36:21;;;;;;;47.40;29.55;;;;;;;0.36;100.00;100436.72;4809777;29;28145;-75
2021/12/07 03:38:48;;;;;;;52.25;30.60;;;;;;;0.39;100.00;100432.94;4817930;29;20042;-75
2021/12/07 03:41:14;;;;;;;49.03;29.83;;;;;;;0.42;100.00;100425.50;4802999;29;20047;-74
2021/12/07 03:43:41;;;;;;;50.05;30.42;;;;;;;0.40;100.00;100437.25;4835535;28;21241;-73
2021/12/07 03:46:06;;;;;;;50.97;30.45;;;;;;;0.42;100.00;100446.72;4814068;29;20113;-75
2021/12/07 03:48:32;;;;;;;51.63;29.92;;;;;;;0.43;100.00;100447.53;4801202;28;20138;-74
2021/12/07 03:50:57;;;;;;;51.55;29.98;;;;;;;0.44;100.00;100449.19;4819540;29;22638;-74
2021/12/07 03:53:23;;;;;;;53.25;31.23;;;;;;;0.36;100.00;100451.81;4829776;28;21972;-74
2021/12/07 03:55:49;;;;;;;52.35;30.45;;;;;;;0.39;100.00;100462.09;4825489;28;20862;-75
2021/12/07 03:58:14;;;;;;;50.25;30.63;;;;;;;0.41;100.00;100471.53;4833392;28;20085;-75
2021/12/07 04:00:42;;;;;;;52.83;31.17;;;;;;;0.40;100.00;100469.88;4818172;29;21262;-75
2021/12/07 04:03:10;;;;;;;50.97;30.23;;;;;;;0.42;100.00;100469.69;4824264;29;21028;-74
2021/12/07 04:05:44;;;;;;;55.85;31.70;;;;;;;0.36;100.00;100473.00;4818749;29;20043;-74
2021/12/07 04:08:11;;;;;;;58.42;32.15;;;;;;;0.34;100.00;100470.50;4791722;29;21219;-74
2021/12/07 04:10:36;;;;;;;51.00;30.77;;;;;;;0.38;100.00;100471.84;4817777;29;20154;-74
2021/12/07 04:13:02;;;;;;;58.10;32.38;;;;;;;0.39;100.00;100486.78;4812659;29;24226;-74
2021/12/07 04:15:28;;;;;;;52.72;30.67;;;;;;;0.49;100.00;100484.00;4807428;29;20162;-73
2021/12/07 04:17:54;;;;;;;58.95;32.17;;;;;;;0.51;100.00;100492.63;4835880;29;20039;-74
2021/12/07 04:20:19;;;;;;;56.13;32.58;;;;;;;0.44;100.00;100484.47;4823643;28;20157;-75
2021/12/07 04:22:45;;;;;;;50.70;29.98;;;;;;;0.47;100.00;100488.63;4816825;29;20043;-74
2021/12/07 04:25:12;;;;;;;57.58;31.85;;;;;;;0.45;100.00;100494.06;4831022;28;21463;-75
2021/12/07 04:27:39;;;;;;;56.30;31.30;;;;;;;0.47;100.00;100493.94;4821102;28;20054;-74
2021/12/07 04:30:08;;;;;;;53.78;30.73;;;;;;;0.39;100.00;100489.41;4816140;29;20673;-74
2021/12/07 04:32:34;;;;;;;57.58;33.10;;;;;;;0.33;100.00;100479.44;4826403;29;20047;-75
2021/12/07 04:35:00;;;;;;;53.88;30.25;;;;;;;0.35;100.00;100492.50;4822889;29;20062;-75
2021/12/07 04:37:25;;;;;;;56.78;32.80;;;;;;;0.30;100.00;100489.50;4816865;29;20100;-75
2021/12/07 04:39:51;;;;;;;53.38;31.17;;;;;;;0.23;100.00;100484.81;4803183;29;20054;-74
2021/12/07 04:42:16;;;;;;;60.08;33.95;;;;;;;0.17;100.00;100482.78;4815741;29;20043;-74
2021/12/07 04:44:50;;;;;;;58.83;31.73;;;;;;;0.11;100.00;100485.25;4810361;29;20035;-73
2021/12/07 04:47:23;;;;;;;59.88;32.20;;;;;;;0.09;100.00;100487.19;4823355;29;20051;-73
2021/12/07 04:58:03;;;;;;;64.22;32.80;;;;;;;-0.13;100.00;100499.94;4814310;29;20047;-74
2021/12/07 05:00:29;;;;;;;59.83;31.77;;;;;;;-0.17;100.00;100495.09;4828551;28;20265;-75
2021/12/07 05:02:59;;;;;;;63.42;32.90;;;;;;;-0.22;100.00;100497.34;4822083;29;20034;-75
2021/12/07 05:05:29;;;;;;;61.47;31.15;;;;;;;-0.19;100.00;100494.41;4824304;28;20059;-75
2021/12/07 05:07:58;;;;;;;67.90;33.38;;;;;;;-0.31;100.00;100492.00;4840710;29;20043;-74
2021/12/07 05:10:32;;;;;;;60.78;33.22;;;;;;;-0.28;100.00;100485.53;4834011;29;20920;-75
2021/12/07 05:23:56;;;;;;;;;;;;;;;-0.18;100.00;100509.31;4833335;29;20058;-75
2021/12/07 05:40:03;;;;;;;68.13;32.53;;;;;;;-0.47;100.00;100539.44;4820316;29;23499;-76
2021/12/07 05:42:29;;;;;;;68.30;31.65;;;;;;;-0.51;100.00;100538.09;4817780;29;20035;-76
2021/12/07 05:44:55;;;;;;;71.47;32.53;;;;;;;-0.49;100.00;100538.78;4806897;28;20062;-75
2021/12/07 05:47:22;;;;;;;64.68;29.05;;;;;;;-0.44;100.00;100538.34;4819550;29;20043;-74
2021/12/07 05:49:47;;;;;;;73.20;31.48;;;;;;;-0.27;100.00;100535.69;4829913;29;20102;-74
2021/12/07 05:52:13;;;;;;;70.75;30.35;;;;;;;-0.23;100.00;100540.69;4808383;29;20070;-74
2021/12/07 05:54:38;;;;;;;62.60;28.38;;;;;;;-0.30;100.00;100536.00;4835785;29;20089;-74
2021/12/07 05:57:04;;;;;;;63.72;29.08;;;;;;;-0.27;100.00;100541.00;4820213;29;20105;-74
2021/12/07 05:59:30;;;;;;;71.22;29.80;;;;;;;-0.20;100.00;100543.06;4819540;29;20043;-74
2021/12/07 06:01:56;;;;;;;62.55;28.08;;;;;;;-0.21;100.00;100549.31;4819402;29;20062;-74
2021/12/07 06:04:21;;;;;;;68.28;27.63;;;;;;;-0.19;100.00;100555.28;4791586;29;20129;-73
2021/12/07 06:06:47;;;;;;;69.15;26.45;;;;;;;-0.22;100.00;100563.53;4821595;29;21197;-74
2021/12/07 06:09:12;;;;;;;64.03;28.45;;;;;;;-0.08;100.00;100570.94;4831475;28;20061;-74
2021/12/07 06:11:38;;;;;;;61.25;25.50;;;;;;;0.02;100.00;100563.78;4808635;29;20055;-73
2021/12/07 06:14:03;;;;;;;60.08;25.90;;;;;;;0.06;100.00;100573.06;4837432;29;21179;-73
2021/12/07 06:16:31;;;;;;;57.63;25.33;;;;;;;0.03;100.00;100581.31;4787690;29;20166;-75
2021/12/07 06:18:57;;;;;;;58.25;25.65;;;;;;;0.05;100.00;100578.53;4833830;28;24228;-74
2021/12/07 06:21:25;;;;;;;58.90;26.10;;;;;;;0.05;100.00;100582.00;4837100;29;20039;-75
2021/12/07 06:23:52;;;;;;;60.42;25.67;;;;;;;0.09;100.00;100588.66;4820706;29;20178;-74
2021/12/07 06:26:17;;;;;;;58.55;24.40;;;;;;;0.05;100.00;100582.00;4805607;29;20941;-74
2021/12/07 06:28:43;;;;;;;55.65;25.60;;;;;;;0.11;100.00;100592.00;4814517;29;20047;-75
2021/12/07 06:31:08;;;;;;;59.25;24.73;;;;;;;0.06;100.00;100598.72;4810767;29;20101;-74
2021/12/07 06:33:34;;;;;;;54.42;22.02;;;;;;;-0.03;100.00;100605.78;4833900;28;20126;-75
2021/12/07 06:36:03;;;;;;;56.83;23.08;;;;;;;0.03;100.00;100599.84;4820421;28;20066;-75
2021/12/07 06:38:30;;;;;;;57.42;24.27;;;;;;;-0.05;100.00;100591.84;4818582;29;20137;-75
2021/12/07 06:40:57;;;;;;;48.83;22.52;;;;;;;-0.16;100.00;100600.00;4834331;28;20996;-73
2021/12/07 06:43:23;;;;;;;53.75;23.48;;;;;;;-0.20;100.00;100599.47;4795814;29;20059;-73
2021/12/07 06:45:49;;;;;;;57.00;21.95;;;;;;;-0.11;100.00;100608.31;4814339;29;23987;-73
2021/12/07 06:48:14;;;;;;;52.50;22.23;;;;;;;-0.16;100.00;100607.94;4825632;29;21281;-73
2021/12/07 06:50:40;;;;;;;55.00;22.45;;;;;;;-0.18;100.00;100612.53;4821208;28;20055;-72
2021/12/07 06:53:06;;;;;;;70.78;23.25;;;;;;;-0.10;100.00;100620.59;4832424;29;20570;-72
2021/12/07 06:55:32;;;;;;;53.60;21.08;;;;;;;-0.03;100.00;100616.38;4800188;28;20058;-72
2021/12/07 06:57:57;;;;;;;49.40;22.48;;;;;;;0.06;100.00;100618.09;4813385;29;20039;-72
2021/12/07 07:00:23;;;;;;;56.90;22.33;;;;;;;0.22;100.00;100607.69;4832519;29;20087;-72
2021/12/07 07:02:48;;;;;;;51.60;21.05;;;;;;;0.39;100.00;100616.59;4814242;29;20062;-72
2021/12/07 07:05:15;;;;;;;55.33;22.38;;;;;;;0.42;100.00;100615.44;4833772;29;20529;-72
2021/12/07 07:07:41;;;;;;;51.22;22.10;;;;;;;0.34;100.00;100616.22;4798045;29;20051;-72
2021/12/07 07:10:10;;;;;;;56.83;22.40;;;;;;;0.38;100.00;100624.69;4808796;29;21200;-72
2021/12/07 07:12:36;;;;;;;51.83;22.33;;;;;;;0.38;100.00;100630.00;4819692;29;20667;-73
2021/12/07 07:15:01;;;;;;;54.83;22.08;;;;;;;0.37;100.00;100631.81;4803423;28;20055;-73
2021/12/07 07:17:27;;;;;;;51.70;21.25;;;;;;;0.37;100.00;100638.94;4836325;29;20046;-73
2021/12/07 07:19:52;;;;;;;48.05;20.55;;;;;;;0.56;100.00;100638.78;4819082;29;20031;-73
2021/12/07 07:22:18;;;;;;;53.78;21.67;;;;;;;0.53;100.00;100649.69;4819391;28;20103;-74
2021/12/07 07:24:45;;;;;;;52.15;22.23;;;;;;;0.58;100.00;100658.00;4818448;29;20451;-72
2021/12/07 07:27:10;;;;;;;49.88;21.73;;;;;;;0.65;100.00;100655.59;4827633;29;20189;-74
2021/12/07 07:29:36;;;;;;;45.42;20.15;;;;;;;0.76;100.00;100675.72;4808650;29;20074;-75
2021/12/07 07:32:02;;;;;;;51.35;22.02;;;;;;;0.84;100.00;100683.72;4834028;29;20039;-73
2021/12/07 07:34:28;;;;;;;51.67;21.60;;;;;;;0.83;100.00;100667.00;4822920;28;21145;-74
2021/12/07 07:36:53;;;;;;;49.13;20.65;;;;;;;0.90;100.00;100678.66;4819249;29;21133;-72
2021/12/07 07:39:19;;;;;;;56.78;21.98;;;;;;;0.95;100.00;100680.84;4832718;29;20152;-72
2021/12/07 07:41:45;;;;;;;49.90;20.02;;;;;;;1.00;100.00;100680.38;4819334;28;20051;-72
2021/12/07 07:44:10;;;;;;;46.50;21.70;;;;;;;1.00;100.00;100686.50;4835434;29;20082;-72
2021/12/07 07:46:36;;;;;;;41.08;19.52;;;;;;;1.03;100.00;100682.72;4812713;29;20406;-72
2021/12/07 07:49:03;;;;;;;50.00;20.63;;;;;;;1.06;100.00;100688.56;4824725;29;20043;-72
2021/12/07 07:51:29;;;;;;;44.72;18.77;;;;;;;1.10;100.00;100684.59;4802496;29;20039;-72
2021/12/07 07:53:56;;;;;;;50.92;18.17;;;;;;;1.12;100.00;100677.34;4803338;29;20133;-73
2021/12/07 07:56:22;;;;;;;51.47;20.42;;;;;;;1.28;100.00;100683.72;4814757;29;20043;-72
2021/12/07 07:58:47;;;;;;;44.60;19.75;;;;;;;1.31;100.00;100686.06;4811371;29;20567;-74
2021/12/07 08:01:12;;;;;;;42.72;18.25;;;;;;;1.36;100.00;100689.06;4818743;29;26185;-72
2021/12/07 08:03:38;;;;;;;44.55;18.98;;;;;;;1.38;100.00;100687.09;4831930;29;20051;-74
2021/12/07 08:06:04;;;;;;;39.13;18.65;;;;;;;1.38;100.00;100676.50;4830064;28;20066;-74
2021/12/07 08:08:29;;;;;;;36.83;18.10;;;;;;;1.34;100.00;100688.41;4826165;29;25279;-74
2021/12/07 08:10:55;;;;;;;47.67;20.67;;;;;;;1.30;100.00;100685.25;4835872;29;20047;-74
2021/12/07 08:13:20;;;;;;;41.75;20.52;;;;;;;1.29;100.00;100670.28;4821362;28;20061;-75
2021/12/07 08:15:48;;;;;;;47.17;20.17;;;;;;;1.31;100.00;100681.59;4833906;28;20045;-75
2021/12/07 08:18:14;;;;;;;43.15;19.80;;;;;;;1.29;100.00;100678.25;4830176;29;20079;-74
2021/12/07 08:20:41;;;;;;;42.28;19.38;;;;;;;1.30;100.00;100657.84;4791422;29;20055;-74
2021/12/07 08:23:06;;;;;;;44.20;19.25;;;;;;;1.49;100.00;100683.34;4835694;28;21039;-75
2021/12/07 08:25:34;;;;;;;41.00;20.70;;;;;;;1.66;100.00;100685.94;4815664;28;20051;-74
2021/12/07 08:28:00;;;;;;;44.20;19.45;;;;;;;1.91;100.00;100686.03;4809333;29;21190;-74
2021/12/07 08:30:25;;;;;;;38.80;19.20;;;;;;;1.97;100.00;100698.69;4837537;29;20070;-73
2021/12/07 08:32:51;;;;;;;41.47;20.30;;;;;;;2.14;100.00;100695.09;4821311;29;21108;-73
2021/12/07 08:35:18;;;;;;;34.95;17.25;;;;;;;2.48;100.00;100702.13;4836233;28;20063;-73
2021/12/07 08:37:46;;;;;;;30.05;16.98;;;;;;;2.60;100.00;100695.50;4799278;29;20042;-73
2021/12/07 08:40:13;;;;;;;35.22;16.70;;;;;;;2.42;100.00;100689.47;4829171;29;20145;-74
2021/12/07 08:42:39;;;;;;;28.27;14.75;;;;;;;2.36;100.00;100692.81;4822035;29;20035;-73
2021/12/07 08:45:06;;;;;;;32.92;15.68;;;;;;;2.32;100.00;100688.81;4794200;29;20102;-73
2021/12/07 08:47:32;;;;;;;34.60;15.15;;;;;;;2.48;100.00;100685.34;4822570;29;20054;-73
2021/12/07 08:49:57;;;;;;;34.55;14.93;;;;;;;2.59;100.00;100691.16;4838715;29;20051;-73
2021/12/07 08:52:23;;;;;;;30.27;14.38;;;;;;;2.50;100.00;100684.19;4827574;29;20063;-74
2021/12/07 09:00:00;;;;;;;22.88;13.52;;;;;;;2.25;100.00;100679.84;4882635;29;20054;-76
2021/12/07 09:02:26;;;;;;;25.15;14.07;;;;;;;2.15;100.00;100674.66;4869062;29;20039;-77
2021/12/07 09:04:53;;;;;;;28.50;14.25;;;;;;;2.03;100.00;100671.44;4891596;28;20051;-77
2021/12/07 09:07:20;;;;;;;32.55;14.57;;;;;;;2.18;100.00;100673.47;4909268;29;20043;-77
2021/12/07 09:09:47;;;;;;;29.23;14.48;;;;;;;2.36;100.00;100682.19;4909030;29;20145;-76
2021/12/07 09:12:14;;;;;;;24.35;13.60;;;;;;;2.66;100.00;100677.22;4896111;28;20169;-79
2021/12/07 09:14:42;;;;;;;23.70;12.80;;;;;;;2.84;100.00;100672.56;4902734;29;20085;-77
2021/12/07 09:17:08;;;;;;;23.15;13.70;;;;;;;2.91;100.00;100654.94;4872921;29;20142;-77
2021/12/07 09:19:34;;;;;;;24.80;13.73;;;;;;;3.08;100.00;100675.22;4869405;29;20063;-77
2021/12/07 09:21:59;;;;;;;19.75;12.95;;;;;;;3.20;100.00;100672.22;4875050;29;20118;-76
2021/12/07 09:24:25;;;;;;;24.17;12.60;;;;;;;3.45;100.00;100668.50;4842326;29;20910;-77
2021/12/07 09:26:51;;;;;;;29.23;13.45;;;;;;;3.56;100.00;100662.81;4874436;29;20130;-77
2021/12/07 09:29:16;;;;;;;20.23;11.93;;;;;;;3.63;100.00;100660.28;4871909;28;20032;-77
2021/12/07 09:31:42;;;;;;;27.77;11.25;;;;;;;3.62;100.00;100669.28;4840045;29;20055;-77
2021/12/07 09:34:08;;;;;;;22.23;11.15;;;;;;;3.76;100.00;100665.91;4859080;29;20142;-76
2021/12/07 09:36:34;;;;;;;18.67;10.40;;;;;;;3.82;100.00;100661.69;4844330;28;20058;-75
2021/12/07 09:39:00;;;;;;;20.67;10.90;;;;;;;4.05;100.00;100675.91;4825921;29;20050;-74
2021/12/07 09:41:26;;;;;;;24.55;11.50;;;;;;;4.31;100.00;100674.78;4837070;29;20129;-75
2021/12/07 09:43:52;;;;;;;21.90;11.05;;;;;;;4.49;100.00;100672.69;4827127;29;20078;-72
2021/12/07 09:46:19;;;;;;;20.75;10.38;;;;;;;4.36;100.00;100679.59;4814383;29;20051;-73
2021/12/07 09:48:46;;;;;;;18.08;10.77;;;;;;;4.28;100.00;100686.66;4842250;28;20035;-75
2021/12/07 09:51:16;;;;;;;18.65;10.73;;;;;;;4.41;100.00;100691.38;4812255;29;20047;-72
2021/12/07 09:53:42;;;;;;;19.75;10.73;;;;;;;4.65;100.00;100702.91;4818213;29;20122;-74
2021/12/07 09:56:08;;;;;;;21.23;10.07;;;;;;;4.38;100.00;100697.06;4831912;28;20143;-73
2021/12/07 09:58:39;;;;;;;18.65;9.75;;;;;;;4.89;100.00;100694.72;4813994;29;20708;-72
2021/12/07 10:01:06;;;;;;;16.40;9.70;;;;;;;5.10;100.00;100707.38;4807568;29;20708;-74
2021/12/07 10:03:31;;;;;;;16.27;9.15;;;;;;;5.29;100.00;100703.38;4810708;28;20052;-74
2021/12/07 10:05:57;;;;;;;21.13;9.65;;;;;;;5.33;100.00;100704.66;4824960;29;20038;-76
2021/12/07 10:08:23;;;;;;;20.85;7.90;;;;;;;5.44;100.00;100706.91;4819480;28;20046;-77
2021/12/07 10:10:54;;;;;;;24.42;9.25;;;;;;;5.55;100.00;100707.47;4812745;29;20059;-75
2021/12/07 10:13:21;;;;;;;16.35;7.82;;;;;;;5.57;100.00;100702.75;4841945;29;20102;-76
2021/12/07 10:15:47;;;;;;;20.70;8.25;;;;;;;5.65;100.00;100700.84;4825277;29;22947;-76
2021/12/07 10:18:15;;;;;;;19.10;8.63;;;;;;;5.75;100.00;100711.22;4824864;29;20039;-76
2021/12/07 10:20:46;;;;;;;18.80;8.32;;;;;;;5.83;100.00;100708.50;4841045;29;20035;-75
2021/12/07 10:23:15;;;;;;;20.63;8.00;;;;;;;5.79;100.00;100707.19;4791636;29;20059;-73
2021/12/07 10:25:43;;;;;;;25.33;8.55;;;;;;;6.03;100.00;100708.75;4834724;28;20041;-76
2021/12/07 10:28:42;;;;;;;20.88;7.80;;;;;;;5.50;100.00;100716.00;4813582;29;20065;-75
2021/12/07 10:31:22;;;;;;;15.20;8.05;;;;;;;4.76;100.00;100713.97;4833563;29;20047;-74
2021/12/07 10:33:58;;;;;;;18.05;7.85;;;;;;;4.30;100.00;100700.63;4833163;29;20047;-74
2021/12/07 10:36:33;;;;;;;17.90;7.78;;;;;;;4.28;100.00;100704.44;4824961;29;20074;-74
2021/12/07 10:39:32;;;;;;;20.52;8.75;;;;;;;4.35;100.00;100707.25;4820144;29;20153;-75
2021/12/07 10:42:02;;;;;;;21.55;7.88;;;;;;;4.70;100.00;100711.19;4818352;28;20057;-74
2021/12/07 10:44:32;;;;;;;18.65;7.80;;;;;;;5.02;100.00;100716.31;4835406;29;20047;-75
2021/12/07 10:47:04;;;;;;;20.65;7.05;;;;;;;5.50;100.00;100706.16;4814262;28;20043;-74
2021/12/07 10:49:37;;;;;;;22.27;7.88;;;;;;;5.78;100.00;100704.69;4808652;29;20153;-73
2021/12/07 10:52:28;;;;;;;20.73;6.75;;;;;;;6.36;100.00;100705.66;4835355;29;20038;-73
2021/12/07 10:55:20;;;;;;;22.05;6.60;;;;;;;6.53;100.00;100703.56;4806357;29;20043;-73
2021/12/07 10:57:50;;;;;;;16.17;5.47;;;;;;;6.57;100.00;100704.88;4823590;29;20031;-75
2021/12/07 11:00:23;;;;;;;19.40;5.85;;;;;;;6.86;100.00;100701.25;4828162;28;21743;-73
2021/12/07 11:02:55;;;;;;;15.50;5.35;;;;;;;6.91;100.00;100699.66;4829642;28;21229;-72
2021/12/07 11:05:24;;;;;;;20.27;6.28;;;;;;;6.92;100.00;100693.25;4837663;29;20035;-74
2021/12/07 11:07:51;;;;;;;16.30;5.90;;;;;;;6.99;100.00;100692.50;4807088;29;20050;-73
2021/12/07 11:10:30;;;;;;;20.15;5.60;;;;;;;7.41;100.00;100694.28;4822327;29;20041;-72
2021/12/07 11:15:53;;;;;;;12.18;4.85;;;;;;;7.84;100.00;100691.44;4815313;29;20059;-73
2021/12/07 11:18:35;;;;;;;19.45;6.00;;;;;;;7.73;100.00;100694.69;4827651;29;20033;-73
2021/12/07 11:21:07;;;;;;;27.25;5.63;;;;;;;7.85;100.00;100693.91;4785858;29;20059;-73
2021/12/07 11:23:39;;;;;;;16.35;5.10;;;;;;;8.07;100.00;100685.75;4820791;29;25249;-73
2021/12/07 11:31:37;;;;;;;18.38;4.63;;;;;;;8.15;100.00;100672.19;4837338;29;20043;-75
2021/12/07 11:34:18;;;;;;;12.77;4.22;;;;;;;8.17;100.00;100675.47;4803773;29;21257;-74
2021/12/07 11:36:47;;;;;;;16.60;4.93;;;;;;;8.23;100.00;100666.63;4835249;29;20078;-73
2021/12/07 11:39:31;;;;;;;14.45;5.13;;;;;;;8.24;100.00;100670.94;4830471;28;20143;-74
2021/12/07 11:42:07;;;;;;;16.27;4.75;;;;;;;8.02;100.00;100661.38;4808630;29;20051;-73
2021/12/07 11:44:35;;;;;;;16.17;5.10;;;;;;;7.97;100.00;100671.88;4834603;29;21021;-74
2021/12/07 11:47:03;;;;;;;12.80;4.63;;;;;;;7.85;100.00;100667.09;4820466;29;20213;-73
2021/12/07 11:49:32;;;;;;;13.65;4.53;;;;;;;8.07;100.00;100672.34;4801815;29;21323;-73
2021/12/07 11:52:00;;;;;;;14.55;4.50;;;;;;;8.22;100.00;100681.06;4833086;28;20147;-74
2021/12/07 11:54:35;;;;;;;18.63;4.63;;;;;;;8.24;100.00;100676.31;4810176;29;20166;-74
2021/12/07 11:57:02;;;;;;;14.68;4.57;;;;;;;8.25;100.00;100669.94;4836612;28;20065;-73
2021/12/07 11:59:28;;;;;;;17.35;4.28;;;;;;;8.21;100.00;100667.84;4820302;28;20062;-73
2021/12/07 12:01:54;;;;;;;13.85;4.88;;;;;;;8.15;100.00;100672.19;4818896;29;20031;-73
2021/12/07 12:04:20;;;;;;;16.52;4.43;;;;;;;8.34;100.00;100675.94;4815256;29;20031;-73
2021/12/07 12:06:51;;;;;;;20.10;4.53;;;;;;;8.14;100.00;100678.53;4805805;29;20058;-73
2021/12/07 12:09:17;;;;;;;14.88;4.95;;;;;;;8.00;100.00;100679.53;4817616;29;20154;-73
2021/12/07 12:11:49;;;;;;;19.90;5.20;;;;;;;8.05;100.00;100674.41;4814479;28;20189;-74
2021/12/07 12:14:54;;;;;;;17.13;4.30;;;;;;;8.29;100.00;100673.88;4823329;29;20629;-72
2021/12/07 12:17:46;;;;;;;16.98;5.05;;;;;;;8.31;100.00;100666.44;4833295;29;20028;-75
2021/12/07 12:20:23;;;;;;;17.17;5.05;;;;;;;8.48;100.00;100666.91;4806166;29;20051;-75
2021/12/07 12:23:11;;;;;;;14.57;4.53;;;;;;;8.44;100.00;100660.31;4833895;29;20154;-74
2021/12/07 12:25:37;;;;;;;13.40;4.40;;;;;;;8.44;100.00;100660.31;4801778;29;20051;-75
2021/12/07 12:28:03;;;;;;;17.02;4.55;;;;;;;8.55;100.00;100656.19;4803150;29;22751;-73
2021/12/07 12:30:32;;;;;;;13.98;4.75;;;;;;;8.36;100.00;100655.94;4831578;29;20163;-74
2021/12/07 12:33:18;;;;;;;16.80;4.32;;;;;;;8.20;100.00;100648.22;4826708;29;20151;-73
2021/12/07 12:35:50;;;;;;;15.50;4.40;;;;;;;8.24;100.00;100644.13;4833745;29;20055;-73
2021/12/07 12:38:21;;;;;;;19.05;4.68;;;;;;;8.04;100.00;100638.72;4818617;28;20059;-73
2021/12/07 12:41:14;;;;;;;14.77;5.10;;;;;;;8.12;100.00;100643.06;4831441;29;20031;-74
2021/12/07 12:43:56;;;;;;;15.93;4.72;;;;;;;8.10;100.00;100637.88;4824129;28;20055;-74
2021/12/07 12:46:30;;;;;;;15.15;4.88;;;;;;;8.26;100.00;100627.81;4823180;29;20057;-73
2021/12/07 12:49:10;;;;;;;15.07;4.05;;;;;;;8.10;100.00;100631.69;4818222;29;20433;-73
2021/12/07 12:51:51;;;;;;;11.90;4.28;;;;;;;7.68;100.00;100628.22;4804673;28;20511;-74
2021/12/07 12:54:20;;;;;;;19.98;4.70;;;;;;;7.65;100.00;100631.28;4817866;29;20039;-73
2021/12/07 12:56:47;;;;;;;17.95;4.57;;;;;;;7.57;100.00;100631.47;4830638;29;20122;-73
2021/12/07 12:59:12;;;;;;;13.52;4.20;;;;;;;7.38;100.00;100622.31;4810824;29;20062;-73
2021/12/07 13:01:43;;;;;;;9.63;3.47;;;;;;;7.12;100.00;100606.88;4818934;29;20028;-73
2021/12/07 13:04:13;;;;;;;26.70;4.45;;;;;;;7.07;100.00;100625.41;4802892;29;20046;-71